Main page
METAR-TAF:

METAR-TAF

Airports :

Geneva Airport

Geneva, Switzerland

latitude: 46-15N, longitude: 006-08E, elevation: 420 m

Current weather observation

The report was made 33 minutes ago, at 15:20 UTC
Wind 6 kt from the North/Northeast, varying between North/Northwest and Northeast
Temperature 16°C
Humidity 39%
Pressure 1014 hPa
Visibility 10 km or more
Scattered clouds at a height of 6000 ft

METAR: LSGG 281520Z 02006KT 340V050 9999 SCT060 16/02 Q1014 NOSIG

Time: 16:53 (15:53 UTC)

Forecast

The report was made 1 hour and 28 minutes ago, at 14:25 UTC
Forecast valid from 28 at 15 UTC to 29 at 21 UTC
Wind 8 kt from the Northeast
Visibility 10 km or more
Few clouds at a height of 5000 ft
Becoming
from 28 at 17 UTC to 28 at 19 UTC
Wind 3 kt from variable directions
Becoming
from 29 at 08 UTC to 29 at 11 UTC
Wind 12 kt from the Northeast

TAF: LSGG 281425Z 2815/2921 05008KT 9999 FEW050 TX15/2815Z TN04/2905Z TX12/2915Z BECMG 2817/2819 VRB03KT BECMG 2908/2911 05012KT

Weather observations and forecasts of more than 4000 airports (METAR and TAF reports).

The available stations are represented by yellow and red dots on the map.

Hover mouse over dot to see the name of the station.

Then click to see weather observations and forecasts.

To change the map : click on the green buttons with a black cross to zoom in, on the green button with a dash to zoom out, or on the green arrows for adjacent maps.


METAR-TAF: